Meteo Giornale » Osservazioni meteo Stati Uniti (USA) » Fargo
ore: 13:53 - Osservazioni Meteo Fargo
Lat. 46° 55' N Lon. 96° 48' W Alt. 274 metri s.l.m.
29 °C
Sereno
Temp. 24 Ore
16 °C
29 °C
Sud/Sud-Ovest
16.7 Km/h
Dew point 8 °C
Umidità 26 %
Visibilità 10 Km
Il sole sorge alle ore 06:45
Il sole tramonta alle ore 20:09
| Data e Ora | Cielo e Fenomeni | T °C | DP °C | Um. % | Pres. hPa | Vis. km | Vento km/h | |
|---|---|---|---|---|---|---|---|---|
| Oggi h: 13:53 | Sereno | 29 | 8 | 26 | 1010 | 10 | S/SO 16.7 | |
| Oggi h: 12:53 | Sereno | 27 | 11 | 36 | 1011 | 10 | O/SO 16.7 | |
| Oggi h: 11:53 | Sereno | 24 | 13 | 50 | 1011 | 10 | SO 11.1 | |
| Oggi h: 10:53 | Sereno | 23 | 12 | 49 | 1011 | 10 | SO 11.1 | |
| Oggi h: 09:53 | Sereno | 20 | 14 | 68 | 1011 | 10 | O/SO 13 | |
| Oggi h: 08:53 | Sereno | 18 | 14 | 77 | 1010 | 10 | O 13 | |
| Oggi h: 07:53 | Sereno | 17 | 15 | 88 | 1010 | 10 | O 13 | |
| Oggi h: 06:53 | Sereno | 16 | 16 | 100 | 1009 | 10 | O 16.7 | |
| Oggi h: 05:53 | Sereno | 17 | 16 | 93 | 1008 | 10 | O 16.7 | |
| Oggi h: 04:53 | Sereno | 18 | 17 | 93 | 1008 | 10 | O 24 | |
| Oggi h: 03:53 | Sereno | 19 | 18 | 93 | 1007 | 10 | O 18.5 | |
| Oggi h: 03:07 | Nuvoloso | 21 | 18 | 82 | 1006 | 10 | O 22.2 | |
| Oggi h: 02:53 | Nuvoloso | 22 | 19 | 83 | 1006 | 10 | O 22.2 | |
| Oggi h: 02:48 | Molto Nuvoloso | 23 | 21 | 88 | 1006 | 10 | O 22.2 | |
| Oggi h: 02:02 | Poco Nuvoloso | 23 | 22 | 94 | 1005 | 10 | S 9.3 | |
| Oggi h: 01:53 | Molto Nuvoloso | 23 | 22 | 94 | 1006 | 10 | S/SO 11.1 | |
| Oggi h: 01:10 | Coperto | 23 | 22 | 94 | 1006 | 10 | O/SO 14.8 | |
| Oggi h: 01:01 | Pioggia | 23 | 22 | 94 | 1005 | 10 | S 14.8 | |
| Oggi h: 00:53 | Temporale nelle vicinanze | 24 | 22 | 88 | 1005 | 10 | S/SE 16.7 | |
| Oggi h: 00:35 | Temporale nelle vicinanze | 23 | 22 | 94 | 1005 | 10 | S/SE 18.5 | |
| Oggi h: 00:27 | Temporale | 24 | 22 | 88 | 1005 | 10 | S 22.2 | |
| Oggi h: 00:18 | Temporale | 24 | 21 | 83 | 1005 | 10 | S 16.7 | |
| Oggi h: 00:13 | Temporale nelle vicinanze | 24 | 21 | 83 | 1005 | 10 | S/SE 18.5 | |
| Oggi h: 00:00 | Molto Nuvoloso | 24 | 21 | 83 | 1005 | 10 | S 9.3 | |
| Ieri h: 23:53 | Molto Nuvoloso | 24 | 21 | 83 | 1005 | 10 | S/SO 9.3 | |
| Ieri h: 23:02 | Molto Nuvoloso | 24 | 21 | 83 | 1004 | 10 | SE 14.8 | |
| Ieri h: 22:53 | Molto Nuvoloso | 24 | 21 | 83 | 1004 | 10 | SE 16.7 | |
| Ieri h: 21:53 | Coperto | 25 | 21 | 78 | 1006 | 10 | SE 16.7 | |
| Ieri h: 20:53 | Coperto | 26 | 21 | 73 | 1006 | 10 | N 5.5 | |
| Ieri h: 20:37 | Coperto | 25 | 21 | 78 | 1005 | 10 | SE 9.3 | |
| Ieri h: 20:13 | Molto Nuvoloso | 26 | 21 | 73 | 1004 | 10 | E/SE 18.5 | |
| Ieri h: 19:53 | Sereno | 26 | 21 | 73 | 1004 | 10 | SE 16.7 | |
| Ieri h: 18:53 | Sereno | 27 | 21 | 69 | 1005 | 10 | SE 25.9 | |
| Ieri h: 17:53 | Coperto | 28 | 21 | 65 | 1005 | 10 | E/SE 25.9 | |
| Ieri h: 16:53 | Coperto | 27 | 20 | 65 | 1006 | 10 | E 22.2 | |
| Ieri h: 15:53 | Poco Nuvoloso | 27 | 19 | 61 | 1006 | 10 | E 29.6 | |
| Ieri h: 14:53 | Nuvoloso | 27 | 19 | 61 | 1007 | 10 | E 27.8 | |



